Time;durP1;ratioP1;P1;durP2;ratioP2;P2;SDS_P1;SDS_P2;PMS_P1;PMS_P2;Temp;Humidity;BMP_temperature;BMP_pressure;BME280_temperature;BME280_humidity;BME280_pressure;Samples;Min_cycle;Max_cycle;Signal;HPM_P1;HPM_P2
2022/01/05 00:00:10;;;;;;;;;;;13.30;99.90;;;;;;5008514;28;836;-54
2022/01/05 00:02:39;;;;;;;;;;;13.30;99.90;;;;;;5002437;28;858;-54
2022/01/05 00:05:06;;;;;;;;;;;13.30;99.90;;;;;;5001403;28;815;-54
2022/01/05 00:07:32;;;;;;;;;;;13.30;99.90;;;;;;5018026;28;772;-45
2022/01/05 00:09:59;;;;;;;;;;;13.30;99.90;;;;;;5002384;28;774;-45
2022/01/05 00:12:25;;;;;;;;;;;13.30;99.90;;;;;;5002392;28;1898;-45
2022/01/05 00:14:51;;;;;;;;;;;13.30;99.90;;;;;;5002404;28;838;-45
2022/01/05 00:17:18;;;;;;;;;;;13.30;99.90;;;;;;5002453;28;773;-45
2022/01/05 00:19:44;;;;;;;;;;;13.30;99.90;;;;;;5002430;28;809;-45
2022/01/05 00:22:10;;;;;;;;;;;13.20;99.90;;;;;;5001914;28;1269;-45
2022/01/05 00:24:36;;;;;;;;;;;13.20;99.90;;;;;;4998148;28;1564;-45
2022/01/05 00:27:03;;;;;;;;;;;13.20;99.90;;;;;;4999350;28;813;-45
2022/01/05 00:29:29;;;;;;;;;;;13.20;99.90;;;;;;5000945;28;1053;-45
2022/01/05 00:31:55;;;;;;;;;;;13.20;99.90;;;;;;4999283;28;1971;-45
2022/01/05 00:34:21;;;;;;;;;;;13.20;99.90;;;;;;4999145;28;869;-45
2022/01/05 00:36:47;;;;;;;;;;;13.20;99.90;;;;;;4998957;28;813;-45
2022/01/05 00:39:14;;;;;;;;;;;13.20;99.90;;;;;;4998902;28;811;-45
2022/01/05 00:41:40;;;;;;;;;;;13.10;99.90;;;;;;5009515;28;814;-45
2022/01/05 00:44:07;;;;;;;;;;;13.10;99.90;;;;;;4998766;28;1040;-45
2022/01/05 00:46:33;;;;;;;;;;;13.10;99.90;;;;;;4998831;28;752;-45
2022/01/05 00:49:00;;;;;;;;;;;13.10;99.90;;;;;;4996814;28;1032;-45
2022/01/05 00:51:26;;;;;;;;;;;13.10;99.90;;;;;;4998613;28;1918;-45
2022/01/05 00:53:53;;;;;;;;;;;13.10;99.90;;;;;;4998265;28;1023;-45
2022/01/05 00:56:19;;;;;;;;;;;13.10;99.90;;;;;;4999385;28;865;-45
2022/01/05 00:58:46;;;;;;;;;;;13.00;99.90;;;;;;5002905;28;1030;-45
2022/01/05 01:01:12;;;;;;;;;;;13.00;99.90;;;;;;4998847;28;816;-45
2022/01/05 01:03:42;;;;;;;;;;;13.00;99.90;;;;;;4998155;28;1417;-45
2022/01/05 01:06:08;;;;;;;;;;;13.00;99.90;;;;;;4998551;28;901;-45
2022/01/05 01:08:34;;;;;;;;;;;13.00;99.90;;;;;;4980812;28;869;-45
2022/01/05 01:11:01;;;;;;;;;;;13.00;99.90;;;;;;4998225;28;1965;-45
2022/01/05 01:13:27;;;;;;;;;;;13.00;99.90;;;;;;4998437;28;863;-45
2022/01/05 01:15:53;;;;;;;;;;;12.90;99.90;;;;;;4999060;28;825;-45
2022/01/05 01:18:19;;;;;;;;;;;12.90;99.90;;;;;;4998713;28;1304;-45
2022/01/05 01:20:47;;;;;;;;;;;12.90;99.90;;;;;;4998060;28;928;-45
2022/01/05 01:23:18;;;;;;;;;;;12.90;99.90;;;;;;4998264;28;873;-45
2022/01/05 01:25:45;;;;;;;;;;;12.90;99.90;;;;;;4996142;28;769;-45
2022/01/05 01:28:11;;;;;;;;;;;12.90;99.90;;;;;;5002734;28;1348;-45
2022/01/05 01:30:39;;;;;;;;;;;12.90;99.90;;;;;;5000340;28;884;-45
2022/01/05 01:33:06;;;;;;;;;;;12.90;99.90;;;;;;4998018;28;1976;-45
2022/01/05 01:35:32;;;;;;;;;;;12.90;99.90;;;;;;4997668;28;889;-45
2022/01/05 01:37:58;;;;;;;;;;;12.80;99.90;;;;;;5029433;28;1092;-45
2022/01/05 01:40:25;;;;;;;;;;;12.80;99.90;;;;;;4994969;28;855;-45
2022/01/05 01:42:51;;;;;;;;;;;12.80;99.90;;;;;;5035475;28;1355;-45
2022/01/05 01:45:17;;;;;;;;;;;12.80;99.90;;;;;;5034685;28;1283;-45
2022/01/05 01:47:45;;;;;;;;;;;12.80;99.90;;;;;;5035494;28;950;-45
2022/01/05 01:50:13;;;;;;;;;;;12.80;99.90;;;;;;5035029;28;1122;-44
2022/01/05 01:52:39;;;;;;;;;;;12.80;99.90;;;;;;5035425;28;1911;-45
2022/01/05 01:55:08;;;;;;;;;;;12.80;99.90;;;;;;5018708;28;1045;-45
2022/01/05 01:57:35;;;;;;;;;;;12.80;99.90;;;;;;5035349;28;848;-45
2022/01/05 02:00:02;;;;;;;;;;;12.80;99.90;;;;;;5036258;28;1064;-45
2022/01/05 02:02:28;;;;;;;;;;;12.80;99.90;;;;;;5035089;28;952;-45
2022/01/05 02:04:55;;;;;;;;;;;12.80;99.90;;;;;;5034791;28;1470;-45
2022/01/05 02:07:23;;;;;;;;;;;12.70;99.90;;;;;;5018315;28;994;-45
2022/01/05 02:09:48;;;;;;;;;;;12.70;99.90;;;;;;5034971;28;811;-45
2022/01/05 02:12:16;;;;;;;;;;;12.70;99.90;;;;;;5018211;28;1960;-45
2022/01/05 02:14:43;;;;;;;;;;;12.70;99.90;;;;;;5001225;28;880;-45
2022/01/05 02:17:16;;;;;;;;;;;12.70;99.90;;;;;;4997838;28;912;-45
2022/01/05 02:19:43;;;;;;;;;;;12.70;99.90;;;;;;4997122;28;853;-45
2022/01/05 02:22:10;;;;;;;;;;;12.80;99.90;;;;;;4994208;28;945;-45
2022/01/05 02:24:36;;;;;;;;;;;12.70;99.90;;;;;;4993348;28;788;-45
2022/01/05 02:27:02;;;;;;;;;;;12.70;99.90;;;;;;4992629;28;882;-45
2022/01/05 02:29:28;;;;;;;;;;;12.70;99.90;;;;;;4998556;28;1148;-45
2022/01/05 02:31:59;;;;;;;;;;;12.70;99.90;;;;;;4996942;28;1898;-45
2022/01/05 02:34:25;;;;;;;;;;;12.70;99.90;;;;;;4996935;28;841;-45
2022/01/05 02:36:52;;;;;;;;;;;12.70;99.90;;;;;;4996892;28;893;-45
2022/01/05 02:39:18;;;;;;;;;;;12.70;99.90;;;;;;4996618;28;750;-45
2022/01/05 02:41:44;;;;;;;;;;;12.70;99.90;;;;;;4996757;28;861;-45
2022/01/05 02:44:10;;;;;;;;;;;12.70;99.90;;;;;;4996640;28;1114;-45
2022/01/05 02:46:36;;;;;;;;;;;12.70;99.90;;;;;;4994727;28;1006;-45
2022/01/05 02:49:05;;;;;;;;;;;12.70;99.90;;;;;;4997502;28;902;-45
2022/01/05 02:51:31;;;;;;;;;;;12.70;99.90;;;;;;4996719;28;1906;-45
2022/01/05 02:53:58;;;;;;;;;;;12.70;99.90;;;;;;4996806;28;882;-45
2022/01/05 02:56:25;;;;;;;;;;;12.70;99.90;;;;;;4996391;28;930;-45
2022/01/05 02:58:51;;;;;;;;;;;12.60;99.90;;;;;;5001561;28;886;-45
2022/01/05 03:01:17;;;;;;;;;;;12.60;99.90;;;;;;5027992;28;946;-45
2022/01/05 03:03:43;;;;;;;;;;;12.60;99.90;;;;;;4995551;28;813;-45
2022/01/05 03:06:09;;;;;;;;;;;12.60;99.90;;;;;;4996647;28;972;-45
2022/01/05 03:08:35;;;;;;;;;;;12.60;99.90;;;;;;4997257;28;954;-45
2022/01/05 03:11:01;;;;;;;;;;;12.60;99.90;;;;;;4997016;28;876;-45
2022/01/05 03:13:27;;;;;;;;;;;12.60;99.90;;;;;;4995989;28;1907;-45
2022/01/05 03:15:54;;;;;;;;;;;12.60;99.90;;;;;;4996325;28;964;-45
2022/01/05 03:18:20;;;;;;;;;;;12.60;99.90;;;;;;4995000;28;1020;-45
2022/01/05 03:20:47;;;;;;;;;;;12.60;99.90;;;;;;4996496;28;786;-45
2022/01/05 03:23:15;;;;;;;;;;;12.60;99.90;;;;;;4996425;28;856;-45
2022/01/05 03:25:42;;;;;;;;;;;12.60;99.90;;;;;;4996488;28;878;-45
2022/01/05 03:28:09;;;;;;;;;;;12.60;99.90;;;;;;4996302;28;837;-45
2022/01/05 03:30:36;;;;;;;;;;;12.60;99.90;;;;;;4997700;28;1097;-45
2022/01/05 03:33:11;;;;;;;;;;;12.60;99.90;;;;;;4996059;28;1902;-45
2022/01/05 03:35:40;;;;;;;;;;;12.60;99.90;;;;;;4996365;28;774;-45
2022/01/05 03:38:07;;;;;;;;;;;12.50;99.90;;;;;;4996107;28;970;-45
2022/01/05 03:40:34;;;;;;;;;;;12.50;99.90;;;;;;5011628;28;817;-45
2022/01/05 03:43:02;;;;;;;;;;;12.50;99.90;;;;;;4996287;28;806;-45
2022/01/05 03:45:29;;;;;;;;;;;12.50;99.90;;;;;;4995915;28;1279;-45
2022/01/05 03:47:57;;;;;;;;;;;12.50;99.90;;;;;;4996324;28;925;-45
2022/01/05 03:50:23;;;;;;;;;;;12.50;99.90;;;;;;4996177;28;959;-45
2022/01/05 03:52:49;;;;;;;;;;;12.50;99.90;;;;;;4995935;28;1911;-45
2022/01/05 03:55:16;;;;;;;;;;;12.50;99.90;;;;;;4996221;28;877;-45
2022/01/05 03:57:43;;;;;;;;;;;12.50;99.90;;;;;;4994953;28;1255;-45
2022/01/05 04:00:10;;;;;;;;;;;12.50;99.90;;;;;;5002994;28;969;-45
2022/01/05 04:02:37;;;;;;;;;;;12.50;99.90;;;;;;4999606;28;1228;-45
2022/01/05 04:05:03;;;;;;;;;;;12.50;99.90;;;;;;4999903;28;881;-45
2022/01/05 04:07:30;;;;;;;;;;;12.50;99.90;;;;;;4999876;28;793;-45
2022/01/05 04:09:57;;;;;;;;;;;12.50;99.90;;;;;;4999823;28;792;-45
2022/01/05 04:12:23;;;;;;;;;;;12.50;99.90;;;;;;4999536;28;1962;-45
2022/01/05 04:14:49;;;;;;;;;;;12.40;99.90;;;;;;5000278;28;806;-45
2022/01/05 04:17:16;;;;;;;;;;;12.40;99.90;;;;;;4999661;28;888;-45
2022/01/05 04:19:42;;;;;;;;;;;12.40;99.90;;;;;;4999740;28;898;-44
2022/01/05 04:22:09;;;;;;;;;;;12.40;99.90;;;;;;5014778;28;874;-45
2022/01/05 04:24:36;;;;;;;;;;;12.40;99.90;;;;;;4998735;28;1243;-45
2022/01/05 04:27:02;;;;;;;;;;;12.40;99.90;;;;;;4999528;28;893;-45
2022/01/05 04:29:28;;;;;;;;;;;12.40;99.90;;;;;;5000286;28;795;-45
2022/01/05 04:31:54;;;;;;;;;;;12.40;99.90;;;;;;4999330;28;1975;-45
2022/01/05 04:34:20;;;;;;;;;;;12.40;99.90;;;;;;4999619;28;806;-45
2022/01/05 04:36:46;;;;;;;;;;;12.40;99.90;;;;;;4998964;28;889;-45
2022/01/05 04:39:12;;;;;;;;;;;12.40;99.90;;;;;;4998977;28;949;-45
2022/01/05 04:41:38;;;;;;;;;;;12.40;99.90;;;;;;4999184;28;802;-45
2022/01/05 04:44:04;;;;;;;;;;;12.40;99.90;;;;;;4999456;28;1168;-45
2022/01/05 04:46:30;;;;;;;;;;;12.40;99.90;;;;;;4999185;28;756;-45
2022/01/05 04:48:56;;;;;;;;;;;12.40;99.90;;;;;;4998926;28;862;-45
2022/01/05 04:51:24;;;;;;;;;;;12.40;99.90;;;;;;4999165;28;814;-45
2022/01/05 04:53:51;;;;;;;;;;;12.30;99.90;;;;;;4998721;28;1902;-45
2022/01/05 04:56:17;;;;;;;;;;;12.30;99.90;;;;;;4997191;28;941;-45
2022/01/05 04:58:43;;;;;;;;;;;12.30;99.90;;;;;;5000346;28;782;-45
2022/01/05 05:01:09;;;;;;;;;;;12.30;99.90;;;;;;4998751;28;806;-45
2022/01/05 05:03:35;;;;;;;;;;;12.30;99.90;;;;;;4981129;28;1016;-45
2022/01/05 05:06:01;;;;;;;;;;;12.30;99.90;;;;;;4998604;28;1164;-45
2022/01/05 05:08:29;;;;;;;;;;;12.30;99.90;;;;;;4998598;28;843;-45
2022/01/05 05:10:56;;;;;;;;;;;12.30;99.90;;;;;;5012615;28;951;-45
2022/01/05 05:13:23;;;;;;;;;;;12.30;99.90;;;;;;4998593;28;1907;-45
2022/01/05 05:15:49;;;;;;;;;;;12.30;99.90;;;;;;4998310;28;881;-45
2022/01/05 05:18:15;;;;;;;;;;;12.30;99.90;;;;;;4998435;28;950;-45
2022/01/05 05:20:42;;;;;;;;;;;12.20;99.90;;;;;;4998243;28;874;-45
2022/01/05 05:23:09;;;;;;;;;;;12.30;99.90;;;;;;4997883;28;1247;-45
2022/01/05 05:25:36;;;;;;;;;;;12.20;99.90;;;;;;4998070;28;854;-45
2022/01/05 05:28:03;;;;;;;;;;;12.20;99.90;;;;;;4998449;28;786;-45
2022/01/05 05:30:29;;;;;;;;;;;12.20;99.90;;;;;;4998514;28;932;-45
2022/01/05 05:32:57;;;;;;;;;;;12.20;99.90;;;;;;4998227;28;1919;-45
2022/01/05 05:35:26;;;;;;;;;;;12.20;99.90;;;;;;4998691;28;869;-45
2022/01/05 05:37:54;;;;;;;;;;;12.20;99.90;;;;;;4997833;28;769;-45
2022/01/05 05:40:20;;;;;;;;;;;12.20;99.90;;;;;;4997893;28;782;-45
2022/01/05 05:42:46;;;;;;;;;;;12.20;99.90;;;;;;4997966;28;822;-45
2022/01/05 05:45:13;;;;;;;;;;;12.20;99.90;;;;;;4997752;28;1403;-53
2022/01/05 05:47:39;;;;;;;;;;;12.20;99.90;;;;;;4995693;28;770;-54
2022/01/05 05:50:24;;;;;;;;;;;12.20;99.90;;;;;;4998127;28;716;-54
2022/01/05 05:52:50;;;;;;;;;;;12.20;99.90;;;;;;4997478;28;1963;-54
2022/01/05 05:55:16;;;;;;;;;;;12.20;99.90;;;;;;4997834;28;794;-54
2022/01/05 05:57:43;;;;;;;;;;;12.20;99.90;;;;;;4997768;28;877;-54
2022/01/05 06:00:11;;;;;;;;;;;12.20;99.90;;;;;;4999928;28;1036;-54
2022/01/05 06:02:38;;;;;;;;;;;12.20;99.90;;;;;;4997599;28;821;-53
2022/01/05 06:05:05;;;;;;;;;;;12.20;99.90;;;;;;4997079;28;1014;-54
2022/01/05 06:07:32;;;;;;;;;;;12.30;99.90;;;;;;4995780;28;1051;-54
2022/01/05 06:09:59;;;;;;;;;;;12.30;99.90;;;;;;4997090;28;793;-54
2022/01/05 06:12:27;;;;;;;;;;;12.40;99.90;;;;;;4995975;28;1891;-54
2022/01/05 06:14:54;;;;;;;;;;;12.40;99.90;;;;;;4997301;28;1124;-54
2022/01/05 06:17:20;;;;;;;;;;;12.50;99.90;;;;;;4997501;28;1046;-54
2022/01/05 06:19:46;;;;;;;;;;;12.50;99.90;;;;;;4997961;28;860;-54
2022/01/05 06:22:13;;;;;;;;;;;12.60;99.90;;;;;;4996321;28;781;-54
2022/01/05 06:24:42;;;;;;;;;;;12.60;99.90;;;;;;4996876;28;1424;-54
2022/01/05 06:27:09;;;;;;;;;;;12.70;99.90;;;;;;4996890;28;839;-54
2022/01/05 06:29:39;;;;;;;;;;;12.80;99.90;;;;;;4998946;28;770;-54
2022/01/05 06:32:07;;;;;;;;;;;12.90;99.90;;;;;;4996860;28;1890;-53
2022/01/05 06:34:33;;;;;;;;;;;13.00;99.90;;;;;;4995447;28;1030;-54
2022/01/05 06:36:59;;;;;;;;;;;13.00;99.90;;;;;;4996769;28;818;-54
2022/01/05 06:39:25;;;;;;;;;;;13.10;99.90;;;;;;4997146;28;1065;-54
2022/01/05 06:41:51;;;;;;;;;;;13.20;99.90;;;;;;4996674;28;802;-54
2022/01/05 06:44:17;;;;;;;;;;;13.30;99.90;;;;;;4997203;28;1061;-54
2022/01/05 06:46:44;;;;;;;;;;;13.40;99.90;;;;;;4996595;28;748;-54
2022/01/05 06:49:10;;;;;;;;;;;13.50;99.90;;;;;;4996743;28;877;-53
2022/01/05 06:51:38;;;;;;;;;;;13.50;99.90;;;;;;4996777;28;872;-54
2022/01/05 06:54:04;;;;;;;;;;;13.60;99.90;;;;;;4996614;28;1915;-53
2022/01/05 06:56:30;;;;;;;;;;;13.70;99.90;;;;;;4996615;28;917;-54
2022/01/05 06:58:56;;;;;;;;;;;13.70;99.90;;;;;;4999514;28;866;-54
2022/01/05 07:01:22;;;;;;;;;;;13.80;99.90;;;;;;4996599;28;1006;-54
2022/01/05 07:03:48;;;;;;;;;;;13.90;99.90;;;;;;4998545;28;1508;-54
2022/01/05 07:06:14;;;;;;;;;;;13.90;99.90;;;;;;4996396;28;839;-53
2022/01/05 07:08:40;;;;;;;;;;;13.90;99.90;;;;;;4996550;28;888;-54
2022/01/05 07:11:06;;;;;;;;;;;14.00;99.90;;;;;;5027684;28;1031;-54
2022/01/05 07:13:32;;;;;;;;;;;14.00;99.90;;;;;;5003727;28;1918;-54
2022/01/05 07:15:58;;;;;;;;;;;14.10;99.90;;;;;;5014745;28;1262;-53
2022/01/05 07:18:25;;;;;;;;;;;14.10;99.90;;;;;;4996142;28;1341;-53
2022/01/05 07:20:51;;;;;;;;;;;14.10;99.90;;;;;;4996225;28;762;-54
2022/01/05 07:23:17;;;;;;;;;;;14.10;99.90;;;;;;4996350;28;798;-53
2022/01/05 07:25:44;;;;;;;;;;;14.20;99.90;;;;;;4996333;28;967;-54
2022/01/05 07:28:10;;;;;;;;;;;14.20;99.90;;;;;;4990662;28;858;-53
2022/01/05 07:30:36;;;;;;;;;;;14.20;99.90;;;;;;5027299;28;908;-54
2022/01/05 07:33:02;;;;;;;;;;;14.20;99.90;;;;;;5013410;28;1972;-54
2022/01/05 07:35:28;;;;;;;;;;;14.20;99.90;;;;;;5000122;28;770;-54
2022/01/05 07:37:54;;;;;;;;;;;14.20;99.90;;;;;;5015462;28;823;-54
2022/01/05 07:40:20;;;;;;;;;;;14.20;99.90;;;;;;5000500;28;932;-54
2022/01/05 07:42:46;;;;;;;;;;;14.20;99.90;;;;;;5031274;28;978;-53
2022/01/05 07:45:13;;;;;;;;;;;14.20;99.90;;;;;;4999894;28;995;-54
2022/01/05 07:47:41;;;;;;;;;;;14.20;99.90;;;;;;5000080;28;999;-54
2022/01/05 07:50:14;;;;;;;;;;;14.20;99.90;;;;;;5031306;28;959;-53
2022/01/05 07:52:41;;;;;;;;;;;14.20;99.90;;;;;;4999712;28;1918;-54
2022/01/05 07:55:07;;;;;;;;;;;14.20;99.90;;;;;;5015416;28;933;-54
2022/01/05 07:57:34;;;;;;;;;;;14.20;99.90;;;;;;4999992;28;1020;-54
2022/01/05 08:00:00;;;;;;;;;;;14.20;99.90;;;;;;5001399;28;908;-53
2022/01/05 08:02:26;;;;;;;;;;;14.20;99.90;;;;;;4999775;28;1062;-54
2022/01/05 08:04:53;;;;;;;;;;;14.20;99.90;;;;;;5015040;28;967;-53
2022/01/05 08:07:21;;;;;;;;;;;14.20;99.90;;;;;;4999768;28;865;-54
2022/01/05 08:09:47;;;;;;;;;;;14.20;99.90;;;;;;4999600;28;851;-53
2022/01/05 08:12:14;;;;;;;;;;;14.20;99.90;;;;;;4999352;28;1903;-53
2022/01/05 08:14:40;;;;;;;;;;;14.20;99.90;;;;;;4999598;28;856;-53
2022/01/05 08:17:06;;;;;;;;;;;14.20;99.90;;;;;;4999400;28;790;-53
2022/01/05 08:19:32;;;;;;;;;;;14.20;99.90;;;;;;4999061;28;1247;-54
2022/01/05 08:21:58;;;;;;;;;;;14.20;99.90;;;;;;4999487;28;854;-53
2022/01/05 08:24:26;;;;;;;;;;;14.20;99.90;;;;;;4999595;28;859;-54
2022/01/05 08:26:52;;;;;;;;;;;14.20;99.90;;;;;;4999243;28;833;-54
2022/01/05 08:29:19;;;;;;;;;;;14.30;99.90;;;;;;5003284;28;810;-54
2022/01/05 08:31:45;;;;;;;;;;;14.30;99.90;;;;;;4999418;28;818;-53
2022/01/05 08:34:12;;;;;;;;;;;14.30;99.90;;;;;;4999082;28;1906;-54
2022/01/05 08:36:40;;;;;;;;;;;14.30;99.90;;;;;;4999005;28;790;-54
2022/01/05 08:39:08;;;;;;;;;;;14.30;99.90;;;;;;4999102;28;870;-53
2022/01/05 08:41:34;;;;;;;;;;;14.40;99.90;;;;;;4998903;28;866;-53
2022/01/05 08:44:00;;;;;;;;;;;14.40;99.90;;;;;;4998088;28;1013;-53
2022/01/05 08:46:26;;;;;;;;;;;14.40;99.90;;;;;;4999011;28;882;-54
2022/01/05 08:48:52;;;;;;;;;;;14.40;99.90;;;;;;5014407;28;1732;-53
2022/01/05 08:51:18;;;;;;;;;;;14.40;99.90;;;;;;4998981;28;1003;-54
2022/01/05 08:53:45;;;;;;;;;;;14.30;99.90;;;;;;5014069;28;1967;-54
2022/01/05 08:56:11;;;;;;;;;;;14.30;99.90;;;;;;4998839;28;790;-53
2022/01/05 08:58:38;;;;;;;;;;;14.30;99.90;;;;;;5001291;28;900;-53
2022/01/05 09:01:05;;;;;;;;;;;14.30;99.90;;;;;;4998660;28;922;-53
2022/01/05 09:03:31;;;;;;;;;;;14.30;99.90;;;;;;4998829;28;857;-53
2022/01/05 09:05:57;;;;;;;;;;;14.20;99.90;;;;;;4998416;28;816;-53
2022/01/05 09:08:23;;;;;;;;;;;14.30;99.90;;;;;;4998962;28;941;-53
2022/01/05 09:10:49;;;;;;;;;;;14.20;99.90;;;;;;4998503;28;757;-53
2022/01/05 09:13:16;;;;;;;;;;;14.20;99.90;;;;;;4998365;28;1906;-53
2022/01/05 09:15:42;;;;;;;;;;;14.20;99.90;;;;;;4999172;28;976;-53
2022/01/05 09:18:08;;;;;;;;;;;14.20;99.90;;;;;;4994938;28;849;-54
2022/01/05 09:20:34;;;;;;;;;;;14.20;99.90;;;;;;4998296;28;1268;-53
2022/01/05 09:23:02;;;;;;;;;;;14.20;99.90;;;;;;4998164;28;814;-53
2022/01/05 09:25:29;;;;;;;;;;;14.10;99.90;;;;;;4998133;28;1084;-45
2022/01/05 09:27:55;;;;;;;;;;;14.20;99.90;;;;;;4998405;28;1127;-45
2022/01/05 09:30:22;;;;;;;;;;;14.10;99.90;;;;;;5031411;28;1206;-53
2022/01/05 09:32:48;;;;;;;;;;;14.10;99.90;;;;;;4980458;28;1975;-53
2022/01/05 09:35:17;;;;;;;;;;;14.20;99.90;;;;;;4998112;28;799;-54
2022/01/05 09:43:12;;;;;;;;;;;14.10;99.90;;;;;;4998132;28;782;-53
2022/01/05 09:45:49;;;;;;;;;;;14.10;99.90;;;;;;4997744;28;1182;-54
2022/01/05 09:48:37;;;;;;;;;;;14.10;99.90;;;;;;4996044;28;782;-47
2022/01/05 09:51:05;;;;;;;;;;;14.10;99.90;;;;;;4998125;28;767;-45
2022/01/05 09:53:33;;;;;;;;;;;14.10;99.90;;;;;;4997488;28;1906;-45
2022/01/05 09:55:59;;;;;;;;;;;14.10;99.90;;;;;;4997854;28;794;-45
2022/01/05 09:58:27;;;;;;;;;;;14.10;99.90;;;;;;4998936;28;888;-45
2022/01/05 10:00:54;;;;;;;;;;;14.20;99.90;;;;;;5013006;28;1683;-45
2022/01/05 10:03:21;;;;;;;;;;;14.20;99.90;;;;;;4997377;28;963;-45
2022/01/05 10:05:48;;;;;;;;;;;14.20;99.90;;;;;;4997307;28;888;-45
2022/01/05 10:08:14;;;;;;;;;;;14.20;99.90;;;;;;4997645;28;893;-45
2022/01/05 10:10:41;;;;;;;;;;;14.20;99.90;;;;;;4997878;28;932;-45
2022/01/05 10:13:08;;;;;;;;;;;14.20;99.90;;;;;;4997178;28;1898;-53
2022/01/05 10:15:34;;;;;;;;;;;14.20;99.90;;;;;;4997115;28;1097;-45
2022/01/05 10:18:17;;;;;;;;;;;14.20;99.90;;;;;;4996666;28;918;-52
2022/01/05 10:20:56;;;;;;;;;;;14.20;99.90;;;;;;4996867;28;1210;-54
2022/01/05 10:23:33;;;;;;;;;;;14.20;99.90;;;;;;4995913;28;934;-54
2022/01/05 10:26:18;;;;;;;;;;;14.20;99.90;;;;;;4997133;28;1168;-45
2022/01/05 10:28:47;;;;;;;;;;;14.20;99.90;;;;;;5001187;28;851;-45
2022/01/05 10:31:17;;;;;;;;;;;14.20;99.90;;;;;;4995786;28;827;-45
2022/01/05 10:33:43;;;;;;;;;;;14.10;99.90;;;;;;4996958;28;1902;-45
2022/01/05 10:36:09;;;;;;;;;;;14.10;99.90;;;;;;4996832;28;1002;-45
2022/01/05 10:38:36;;;;;;;;;;;14.10;99.90;;;;;;4995833;28;894;-45
2022/01/05 10:41:16;;;;;;;;;;;14.10;99.90;;;;;;4997037;28;801;-53
2022/01/05 10:44:00;;;;;;;;;;;14.10;99.90;;;;;;4996636;28;1273;-52
2022/01/05 10:46:33;;;;;;;;;;;14.10;99.90;;;;;;4996872;28;849;-53
2022/01/05 10:49:00;;;;;;;;;;;14.00;99.90;;;;;;4979350;28;1055;-45
2022/01/05 10:51:31;;;;;;;;;;;14.00;99.90;;;;;;4996680;28;849;-54
2022/01/05 10:54:14;;;;;;;;;;;14.00;99.90;;;;;;4996555;28;1910;-45
2022/01/05 10:56:42;;;;;;;;;;;14.00;99.90;;;;;;4996564;28;865;-45
2022/01/05 10:59:10;;;;;;;;;;;14.00;99.90;;;;;;4997957;28;1042;-45
2022/01/05 11:01:39;;;;;;;;;;;14.00;99.90;;;;;;5012071;28;1628;-45
2022/01/05 11:04:16;;;;;;;;;;;14.00;99.90;;;;;;4996587;28;802;-45
2022/01/05 11:06:55;;;;;;;;;;;14.00;99.90;;;;;;4994851;28;877;-53
2022/01/05 11:09:22;;;;;;;;;;;14.00;99.90;;;;;;4997118;28;927;-45
2022/01/05 11:11:49;;;;;;;;;;;13.90;99.90;;;;;;4996573;28;796;-54
2022/01/05 11:14:17;;;;;;;;;;;14.00;99.90;;;;;;4996558;28;1965;-53
2022/01/05 11:16:46;;;;;;;;;;;14.00;99.90;;;;;;4996236;28;845;-45
2022/01/05 11:19:30;;;;;;;;;;;14.00;99.90;;;;;;4996571;28;822;-45
2022/01/05 11:21:59;;;;;;;;;;;13.90;99.90;;;;;;4996391;28;839;-45
2022/01/05 11:24:26;;;;;;;;;;;14.00;99.90;;;;;;4997234;28;877;-45
2022/01/05 11:26:52;;;;;;;;;;;13.90;99.90;;;;;;4996265;28;817;-54
2022/01/05 11:29:19;;;;;;;;;;;14.00;99.90;;;;;;4998732;28;1270;-53
2022/01/05 11:31:45;;;;;;;;;;;13.90;99.90;;;;;;4996384;28;870;-54
2022/01/05 11:34:13;;;;;;;;;;;14.00;99.90;;;;;;4996223;28;1902;-53
2022/01/05 11:36:41;;;;;;;;;;;14.00;99.90;;;;;;4996503;28;793;-54
2022/01/05 11:39:08;;;;;;;;;;;14.00;99.90;;;;;;4996523;28;904;-53
2022/01/05 11:41:39;;;;;;;;;;;14.00;99.90;;;;;;4996317;28;871;-54
2022/01/05 11:44:06;;;;;;;;;;;14.00;99.90;;;;;;4996286;28;1012;-53
2022/01/05 11:46:32;;;;;;;;;;;13.90;99.90;;;;;;4996174;28;932;-45
2022/01/05 11:49:11;;;;;;;;;;;13.90;99.90;;;;;;4995923;28;1235;-45
2022/01/05 11:51:58;;;;;;;;;;;14.00;99.90;;;;;;4996112;28;1070;-45
2022/01/05 11:54:28;;;;;;;;;;;13.90;99.90;;;;;;4992399;28;1966;-47
2022/01/05 11:56:57;;;;;;;;;;;13.90;99.90;;;;;;4995054;28;926;-45
2022/01/05 11:59:33;;;;;;;;;;;13.90;99.90;;;;;;4996728;28;873;-54
2022/01/05 12:02:00;;;;;;;;;;;14.00;99.90;;;;;;4975110;28;1122;-53
2022/01/05 12:04:29;;;;;;;;;;;13.90;99.90;;;;;;4975044;28;900;-53
2022/01/05 12:07:01;;;;;;;;;;;13.90;99.90;;;;;;4974810;28;945;-53
2022/01/05 12:09:30;;;;;;;;;;;13.90;99.90;;;;;;4974310;28;1201;-45
2022/01/05 12:11:56;;;;;;;;;;;13.90;99.90;;;;;;4974847;28;833;-45
2022/01/05 12:14:22;;;;;;;;;;;13.90;99.90;;;;;;4974936;28;1910;-53
2022/01/05 12:17:00;;;;;;;;;;;13.90;99.90;;;;;;4974935;28;933;-53
2022/01/05 12:19:32;;;;;;;;;;;13.90;99.90;;;;;;4974483;28;812;-53
2022/01/05 12:22:02;;;;;;;;;;;13.80;99.90;;;;;;4977946;28;1292;-53
2022/01/05 12:24:48;;;;;;;;;;;13.80;99.90;;;;;;4978448;28;1257;-45
2022/01/05 12:27:21;;;;;;;;;;;13.80;99.90;;;;;;4967667;28;1041;-45
2022/01/05 12:29:48;;;;;;;;;;;13.80;99.90;;;;;;4983379;28;1704;-46
2022/01/05 12:32:30;;;;;;;;;;;13.70;99.90;;;;;;4984081;28;895;-45
2022/01/05 12:34:58;;;;;;;;;;;13.80;99.90;;;;;;4999316;28;1891;-45
2022/01/05 12:37:37;;;;;;;;;;;13.70;99.90;;;;;;4999267;28;861;-45
2022/01/05 12:40:22;;;;;;;;;;;13.70;99.90;;;;;;4999135;28;777;-46
2022/01/05 12:42:48;;;;;;;;;;;13.70;99.90;;;;;;4999079;28;900;-54
2022/01/05 12:45:37;;;;;;;;;;;13.70;99.90;;;;;;4998736;28;1023;-53
2022/01/05 12:48:03;;;;;;;;;;;13.70;99.90;;;;;;4997847;28;1804;-46
2022/01/05 12:50:33;;;;;;;;;;;13.70;99.90;;;;;;4998825;28;845;-53
2022/01/05 12:52:59;;;;;;;;;;;13.70;99.90;;;;;;4997476;28;1910;-53
2022/01/05 12:55:25;;;;;;;;;;;13.70;99.90;;;;;;4998716;28;830;-53
2022/01/05 12:57:55;;;;;;;;;;;13.70;99.90;;;;;;4999977;28;1357;-54
2022/01/05 13:00:20;;;;;;;;;;;13.70;99.90;;;;;;5004073;28;789;-45
2022/01/05 13:02:47;;;;;;;;;;;13.70;99.90;;;;;;4999360;28;960;-45
2022/01/05 13:05:26;;;;;;;;;;;13.70;99.90;;;;;;5013952;28;968;-45
2022/01/05 13:07:52;;;;;;;;;;;13.70;99.90;;;;;;4998447;28;961;-45
2022/01/05 13:10:19;;;;;;;;;;;13.70;99.90;;;;;;4998815;28;992;-45
2022/01/05 13:12:45;;;;;;;;;;;13.70;99.90;;;;;;4999085;28;1034;-45
2022/01/05 13:15:13;;;;;;;;;;;13.70;99.90;;;;;;5014266;28;1304;-45
2022/01/05 13:17:40;;;;;;;;;;;13.70;99.90;;;;;;4998220;28;910;-45
2022/01/05 13:20:13;;;;;;;;;;;13.70;99.90;;;;;;4980361;28;1374;-53
2022/01/05 13:22:50;;;;;;;;;;;13.70;99.90;;;;;;4997466;28;1290;-53
2022/01/05 13:25:22;;;;;;;;;;;13.70;99.90;;;;;;4997397;28;1042;-53
2022/01/05 13:27:49;;;;;;;;;;;13.70;99.90;;;;;;5029396;28;896;-45
2022/01/05 13:30:25;;;;;;;;;;;13.70;99.90;;;;;;5000597;28;942;-45
2022/01/05 13:32:57;;;;;;;;;;;13.70;99.90;;;;;;4998163;28;1957;-45
2022/01/05 13:35:25;;;;;;;;;;;13.70;99.90;;;;;;4998116;28;772;-45
2022/01/05 13:37:53;;;;;;;;;;;13.60;99.90;;;;;;4998019;28;1065;-45
2022/01/05 13:40:23;;;;;;;;;;;13.60;99.90;;;;;;4997984;28;797;-45
2022/01/05 13:42:52;;;;;;;;;;;13.70;99.90;;;;;;4997705;28;1707;-53
2022/01/05 13:45:24;;;;;;;;;;;13.60;99.90;;;;;;4998288;28;1166;-45
2022/01/05 13:47:56;;;;;;;;;;;13.60;99.90;;;;;;4994836;28;889;-45
2022/01/05 13:50:24;;;;;;;;;;;13.60;99.90;;;;;;4995587;28;1058;-45
2022/01/05 13:53:00;;;;;;;;;;;13.60;99.90;;;;;;4997505;28;1043;-54
2022/01/05 13:55:32;;;;;;;;;;;13.60;99.90;;;;;;4997846;28;940;-53
2022/01/05 13:58:05;;;;;;;;;;;13.60;99.90;;;;;;4997578;28;778;-54
2022/01/05 14:00:32;;;;;;;;;;;13.60;99.90;;;;;;4999531;28;835;-53
2022/01/05 14:02:58;;;;;;;;;;;13.60;99.90;;;;;;4996516;28;923;-45
2022/01/05 14:05:24;;;;;;;;;;;13.60;99.90;;;;;;4997431;28;814;-45
2022/01/05 14:08:02;;;;;;;;;;;13.50;99.90;;;;;;4997349;28;1096;-54
2022/01/05 14:10:30;;;;;;;;;;;13.50;99.90;;;;;;4998191;28;856;-45
2022/01/05 14:13:06;;;;;;;;;;;13.50;99.90;;;;;;4996992;28;1903;-54
2022/01/05 14:15:35;;;;;;;;;;;13.50;99.90;;;;;;4996888;28;987;-53
2022/01/05 14:18:01;;;;;;;;;;;13.50;99.90;;;;;;4997194;28;975;-54
2022/01/05 14:20:28;;;;;;;;;;;13.50;99.90;;;;;;4998045;28;905;-45
2022/01/05 14:23:06;;;;;;;;;;;13.50;99.90;;;;;;4996444;28;1238;-53
2022/01/05 14:25:53;;;;;;;;;;;13.50;99.90;;;;;;4997214;28;830;-45
2022/01/05 14:28:38;;;;;;;;;;;13.50;99.90;;;;;;4994052;28;1072;-53
2022/01/05 14:31:12;;;;;;;;;;;13.50;99.90;;;;;;4997184;28;901;-54
2022/01/05 14:33:57;;;;;;;;;;;13.50;99.90;;;;;;4990894;28;1980;-53
2022/01/05 14:36:35;;;;;;;;;;;13.50;99.90;;;;;;4997084;28;829;-45
2022/01/05 14:39:04;;;;;;;;;;;13.60;99.90;;;;;;4996906;28;977;-45
2022/01/05 14:41:30;;;;;;;;;;;13.60;99.90;;;;;;4996988;28;818;-45
2022/01/05 14:44:10;;;;;;;;;;;13.60;99.90;;;;;;4996447;28;1681;-45
2022/01/05 14:46:36;;;;;;;;;;;13.60;99.90;;;;;;4997476;28;963;-45
2022/01/05 14:49:03;;;;;;;;;;;13.60;99.90;;;;;;4996435;28;973;-45